ADDS METAR Data INFO
IDs: Format: Raw Decoded Include TAF

Data at: 0201 UTC 19 Jul 2018

KRKP 190153Z AUTO 16011G17KT 7SM CLR 28/25 A2991 RMK AO2 SLP131 T02830250
KRKP 190053Z AUTO 15013G20KT 7SM CLR 29/25 A2991 RMK AO2 SLP129 T02890250
KRKP 182353Z AUTO 16009G18KT 7SM CLR 30/25 A2990 RMK AO2 SLP127 T03000250 10328 20300 56013
KRKP 182253Z AUTO 16010G18KT 7SM CLR 31/25 A2991 RMK AO2 SLP129 T03110250
KRKP 182153Z AUTO 16009G16KT 7SM CLR 32/26 A2992 RMK AO2 SLP133 T03170256
KRKP 182053Z AUTO 15012G18KT 8SM CLR 32/25 A2994 RMK AO2 SLP140 T03170250 57017
KRKP 181953Z AUTO 17011KT 8SM CLR 32/25 A2996 RMK AO2 SLP146 T03170250
KRKP 181853Z AUTO 17010G17KT 150V210 8SM CLR 32/24 A2998 RMK AO2 SLP152 T03220244
KRKP 181753Z AUTO 17012G18KT 8SM SCT022 32/24 A2999 RMK AO2 SLP157 T03170244 10322 20267 56012
KRKP 181653Z AUTO 17009G16KT 8SM CLR 32/24 A3000 RMK AO2 SLP160 T03170244
KRKP 181553Z AUTO 20006KT 7SM FEW022 30/24 A3001 RMK AO2 SLP164 T03000239
KRKP 181453Z AUTO 18008G15KT 7SM SCT018 29/24 A3003 RMK AO2 SLP169 T02940239 58001
KRKP 181436Z AUTO VRB05G15KT 7SM BKN018 30/24 A3003 RMK AO2 T03000244
KRKP 181353Z AUTO 18008KT 7SM FEW017 29/24 A3003 RMK AO2 SLP171 T02890244
KRKP 181253Z AUTO 19006KT 6SM HZ FEW018 28/24 A3003 RMK AO2 SLP170 T02780244
KRKP 181153Z AUTO 19004KT 6SM BR FEW019 27/24 A3003 RMK AO2 SLP170 T02670244 10283 20267 53007
KRKP 181103Z AUTO 20005KT 7SM FEW019 SCT023 27/24 A3002 RMK AO2 T02720244
KRKP 181053Z AUTO 19006KT 8SM SCT017 BKN023 27/24 A3001 RMK AO2 SLP164 T02720244
KRKP 181022Z AUTO 19005KT 7SM SCT016 BKN021 BKN026 27/24 A3002 RMK AO2 T02720244
KRKP 181007Z AUTO 19007KT 7SM SCT017 SCT024 27/24 A3000 RMK AO2 T02720244
KRKP 180953Z AUTO 19007KT 7SM SCT017 BKN024 27/24 A3001 RMK AO2 SLP162 T02720244
KRKP 180913Z AUTO 19007KT 8SM SCT017 BKN023 28/24 A3000 RMK AO2 T02780244
KRKP 180853Z AUTO 19008KT 8SM FEW019 28/24 A3001 RMK AO2 SLP162 T02780244 55002
KRKP 180753Z AUTO 18006KT 8SM CLR 28/24 A3000 RMK AO2 SLP161 T02780244
KRKP 180653Z AUTO 18005KT 8SM SCT016 28/25 A3000 RMK AO2 SLP162 T02830250
KRKP 180628Z AUTO 18009KT 8SM SCT016 SCT024 28/24 A3001 RMK AO2 T02830244
KRKP 180613Z AUTO 17008KT 8SM SCT018 BKN026 28/24 A3001 RMK AO2 T02830244
KRKP 180604Z AUTO 16010G15KT 8SM SCT022 SCT026 28/24 A3001 RMK AO2 T02830244
KRKP 180553Z AUTO 18009G15KT 8SM FEW016 BKN023 28/25 A3001 RMK AO2 SLP165 T02830250 10300 20283 403220267 50004
KRKP 180521Z AUTO 17007KT 8SM BKN018 28/25 A3001 RMK AO2 T02830250
KRKP 180453Z AUTO 18006KT 8SM SCT016 28/25 A3002 RMK AO2 SLP166 T02830250
KRKP 180353Z AUTO 17008KT 8SM FEW016 28/25 A3001 RMK AO2 SLP165 T02830250
KRKP 180253Z AUTO 16007KT 9SM CLR 28/24 A3000 RMK AO2 SLP161 T02830239 53003
KRKP 180153Z AUTO 16008KT 9SM FEW017 29/24 A3000 RMK AO2 SLP159 T02890244
KRKP 180053Z AUTO 16011KT 8SM CLR 29/24 A2999 RMK AO2 SLP158 T02890244
KRKP 172353Z AUTO 15011G17KT 8SM CLR 30/24 A2999 RMK AO2 SLP158 T03000244 10322 20300 58008
KRKP 172253Z AUTO 14011KT 8SM CLR 31/24 A3000 RMK AO2 SLP161 T03060244
KRKP 172153Z AUTO 15011KT 8SM CLR 32/24 A3002 RMK AO2 SLP166 T03170244
KRKP 172053Z AUTO 14011KT 8SM CLR 32/24 A3002 RMK AO2 SLP166 T03170244 58014
KRKP 171953Z AUTO 14011KT 8SM FEW024 32/24 A3004 RMK AO2 SLP173 T03170244
KRKP 171853Z AUTO 15009KT 8SM FEW026 32/24 A3005 RMK AO2 SLP176 T03220244
KRKP 171753Z AUTO 17008KT 130V190 8SM CLR 32/24 A3006 RMK AO2 SLP181 T03170239 10322 20272 58002
KRKP 171653Z AUTO VRB06KT 8SM FEW025 32/24 A3007 RMK AO2 SLP183 T03170239
KRKP 171630Z AUTO 15011KT 8SM SCT025 32/24 A3006 RMK AO2 T03170239
KRKP 171623Z AUTO 16008KT 8SM BKN025 32/24 A3006 RMK AO2 T03170239
KRKP 171553Z AUTO 17007KT 150V220 8SM SCT026 31/24 A3007 RMK AO2 SLP182 T03110239
KRKP 171453Z AUTO 20004KT 8SM FEW021 29/24 A3007 RMK AO2 SLP183 T02940239 51009